Lehigh Valley International Airport
KABE : rendu visible

Aérodrome :











RETROUVEZ-NOUS SUR...

 
LOGIN :

S'inscrire | Disclaimer

   EN    FR    IT 

 









Légende :    VFR   VFR Marginal   IFR   IFR Intensif   IFR Très Intensif
Visi : 
Plafond : 
>= 8 km
>= 3000ft
5 à 8 km
1000 à 3000 ft
1500m à 5 km
500 à 1000 ft
800 à 1500m
200 à 500 ft
< 800m
< 200 ft
Symboles :   Orages  Brouillard  Fortes neiges  Fortes précipitations  Vent > 20 kt







- Altitude de l'aérodrome : 393 ft
- Code IATA : ABE


KABE - Lehigh Valley International

DERNIER METAR :
  • 222151Z 32012KT 10SM CLR 19/08 A3001 RMK AO2 SLP161 T01940083 $

METARs EXPIRÉS :
  • 222051Z 34009KT 19/09 A3002 RMK AO2 SLP164 60000 T01940094 58009 $
  • 221951Z A3004 RMK AO2 RAB1857RAEMM SLPNO P0000 $

TAF KABE
Valide du 22 à 18h jusqu'au 23 à 18h UTC


221720Z 2218/2318 35013G20KT P6SM BKN050
FM222000 35012KT P6SM BKN080
FM222300 34008KT P6SM SCT070
FM230100 VRB04KT P6SM SCT120
FM230800 VRB02KT P6SM SKC
TEMPO 2310/2312 5SM BR
FM231500 22005KT P6SM SKC
FIR KZNY / Amérique du Nord



MET'MAP, la Météo Aéronautique d'un coup d'oeil ! - Copyright ORBIFLY Décembre 2007 - Disclaimer

ORBIFLY MET'MAP TEAM :

Programmation & Développement : Alexandra Zaïnal
Conception & Développement : Baudouin d'Aumeries
Co-Programmation & Développement : Marc-Olivier Méhu
Soutien technique & logistique : Manuel Goepfert

Contact : metmap@orbifly.com




SOURCES & CREDITS :

   NOAA       Earth
Advisory